Terminal Aerodrome Forecast
Issued by NWS Sioux Falls, SD

Home | Current Version | Previous Version | Graphics & Text | Print | Product List | Glossary Off
Versions: 1 2 3 4 5 6 7 8 9 10 11 12 13 14 15 16 17 18 19 20 21 22 23 24 25

000
FTUS43 KFSD 161737
TAFSUX
TAF
KSUX 161737Z 1618/1718 32020G30KT P6SM FEW015
     FM162100 33014G20KT P6SM FEW015
     FM170000 33008KT P6SM SKC
     FM170700 36003KT P6SM SCT180=

USA.gov is the U.S. government's official web portal to all federal, state and local government web resources and services.